createdAt,value
2023-01-08T00:00:16.404Z,114.73
2023-01-08T00:02:43.885Z,50.33
2023-01-08T00:05:11.737Z,28.90
2023-01-08T00:07:39.172Z,34.00
2023-01-08T00:10:07.201Z,51.13
2023-01-08T00:12:35.042Z,92.70
2023-01-08T00:15:02.474Z,45.63
2023-01-08T00:17:29.939Z,33.97
2023-01-08T00:19:57.333Z,40.83
2023-01-08T00:22:24.949Z,26.87
2023-01-08T00:24:52.386Z,25.00
2023-01-08T00:27:19.851Z,28.23
2023-01-08T00:29:47.286Z,28.97
2023-01-08T00:32:14.715Z,33.80
2023-01-08T00:34:42.247Z,42.43
2023-01-08T00:37:09.684Z,38.40
2023-01-08T00:39:37.203Z,32.40
2023-01-08T00:42:04.750Z,38.30
2023-01-08T00:44:32.153Z,31.93
2023-01-08T00:46:59.590Z,31.10
2023-01-08T00:49:27.016Z,35.83
2023-01-08T00:51:54.434Z,34.93
2023-01-08T00:54:22.072Z,33.80
2023-01-08T00:56:49.549Z,36.63
2023-01-08T00:59:16.989Z,31.90
2023-01-08T01:01:44.735Z,36.27
2023-01-08T01:04:12.261Z,38.23
2023-01-08T01:06:39.827Z,33.63
2023-01-08T01:09:08.150Z,36.40
2023-01-08T01:11:35.959Z,36.73
2023-01-08T01:14:03.380Z,36.93
2023-01-08T01:16:30.892Z,47.37
2023-01-08T01:18:58.946Z,85.03
2023-01-08T01:21:30.648Z,54.67
2023-01-08T01:24:01.509Z,41.07
2023-01-08T01:26:29.893Z,45.33
2023-01-08T01:28:58.933Z,51.47
2023-01-08T01:31:30.664Z,42.97
2023-01-08T01:33:58.429Z,45.27
2023-01-08T01:36:26.812Z,45.87
2023-01-08T01:38:56.777Z,51.83
2023-01-08T01:41:31.662Z,72.50
2023-01-08T01:44:21.464Z,67.27
2023-01-08T01:46:50.096Z,48.50
2023-01-08T01:49:23.311Z,43.93
2023-01-08T01:51:56.544Z,44.57
2023-01-08T01:54:25.055Z,48.23
2023-01-08T01:56:52.654Z,44.97
2023-01-08T01:59:20.075Z,49.70
2023-01-08T02:01:48.351Z,71.73
2023-01-08T02:04:16.095Z,95.67
2023-01-08T02:07:14.739Z,95.20
2023-01-08T02:09:59.499Z,94.37
2023-01-08T02:12:54.850Z,83.00
2023-01-08T02:15:49.030Z,69.77
2023-01-08T02:18:44.273Z,79.60
2023-01-08T02:21:38.867Z,57.20
2023-01-08T02:24:28.847Z,60.20
2023-01-08T02:26:59.916Z,76.77
2023-01-08T02:29:28.886Z,62.87
2023-01-08T02:31:57.006Z,59.73
2023-01-08T02:34:24.417Z,56.07
2023-01-08T02:36:55.052Z,66.70
2023-01-08T02:39:38.554Z,65.83
2023-01-08T02:42:32.898Z,67.30
2023-01-08T02:45:47.610Z,56.53
2023-01-08T02:48:26.948Z,103.63
2023-01-08T02:51:03.047Z,86.97
2023-01-08T02:53:38.400Z,92.33
2023-01-08T02:56:17.226Z,82.63
2023-01-08T02:58:48.181Z,72.10
2023-01-08T03:01:21.360Z,77.90
2023-01-08T03:03:56.643Z,78.73
2023-01-08T03:06:25.633Z,80.57
2023-01-08T03:08:54.489Z,69.40
2023-01-08T03:11:25.179Z,57.37
2023-01-08T03:14:08.088Z,72.93
2023-01-08T03:16:40.202Z,53.73
2023-01-08T03:19:44.059Z,67.13
2023-01-08T03:22:16.168Z,91.00
2023-01-08T03:24:46.721Z,65.63
2023-01-08T03:27:19.451Z,56.10
2023-01-08T03:29:51.733Z,63.23
2023-01-08T03:32:22.361Z,37.67
2023-01-08T03:34:54.454Z,50.63
2023-01-08T03:37:29.089Z,58.47
2023-01-08T03:40:10.480Z,43.13
2023-01-08T03:42:38.004Z,40.80
2023-01-08T03:45:06.451Z,46.13
2023-01-08T03:47:35.455Z,53.80
2023-01-08T03:50:07.951Z,38.43
2023-01-08T03:52:35.617Z,92.57
2023-01-08T03:55:03.925Z,79.37
2023-01-08T03:57:31.409Z,59.47
2023-01-08T03:59:58.851Z,76.87
2023-01-08T04:02:26.382Z,115.27
2023-01-08T04:04:53.943Z,71.23
2023-01-08T04:07:21.706Z,46.57
2023-01-08T04:09:49.171Z,40.17
2023-01-08T04:12:16.561Z,38.23
2023-01-08T04:14:44.045Z,38.37
2023-01-08T04:17:15.060Z,43.57
2023-01-08T04:19:42.644Z,38.50
2023-01-08T04:22:11.875Z,40.27
2023-01-08T04:24:39.495Z,37.47
2023-01-08T04:27:06.964Z,37.97
2023-01-08T04:29:34.472Z,40.93
2023-01-08T04:32:01.971Z,36.47
2023-01-08T04:34:29.479Z,34.50
2023-01-08T04:36:57.136Z,34.83
2023-01-08T04:39:24.582Z,36.93
2023-01-08T04:41:52.015Z,36.23
2023-01-08T04:44:19.495Z,38.13
2023-01-08T04:46:46.917Z,37.80
2023-01-08T04:49:14.900Z,40.27
2023-01-08T04:51:42.464Z,43.77
2023-01-08T04:54:10.472Z,39.20
2023-01-08T04:56:37.891Z,41.73
2023-01-08T04:59:05.377Z,39.67
2023-01-08T05:01:33.028Z,42.13
2023-01-08T05:04:03.914Z,44.07
2023-01-08T05:06:33.126Z,43.80
2023-01-08T05:09:00.607Z,46.33
2023-01-08T05:11:28.089Z,46.23
2023-01-08T05:13:56.729Z,47.57
2023-01-08T05:16:24.536Z,44.57
2023-01-08T05:18:51.951Z,48.37
2023-01-08T05:21:19.445Z,69.70
2023-01-08T05:23:48.495Z,57.57
2023-01-08T05:26:17.000Z,53.47
2023-01-08T05:28:44.837Z,47.63
2023-01-08T05:31:12.969Z,48.17
2023-01-08T05:33:41.049Z,42.33
2023-01-08T05:36:10.897Z,44.60
2023-01-08T05:38:39.524Z,44.77
2023-01-08T05:41:07.885Z,40.10
2023-01-08T05:43:35.796Z,40.47
2023-01-08T05:46:04.508Z,40.77
2023-01-08T05:48:34.485Z,38.77
2023-01-08T05:51:03.123Z,41.87
2023-01-08T05:53:34.097Z,41.53
2023-01-08T05:56:12.354Z,39.43
2023-01-08T05:58:40.011Z,41.77
2023-01-08T06:01:16.383Z,43.20
2023-01-08T06:03:43.944Z,49.07
2023-01-08T06:06:12.605Z,43.30
2023-01-08T06:08:40.264Z,42.77
2023-01-08T06:11:11.267Z,37.83
2023-01-08T06:13:43.572Z,42.23
2023-01-08T06:16:11.589Z,42.03
2023-01-08T06:18:39.442Z,45.17
2023-01-08T06:21:07.028Z,42.20
2023-01-08T06:23:34.675Z,50.53
2023-01-08T06:26:04.427Z,41.47
2023-01-08T06:28:32.432Z,58.17
2023-01-08T06:31:03.552Z,64.63
2023-01-08T06:33:32.053Z,90.33
2023-01-08T06:36:04.812Z,73.53
2023-01-08T06:38:34.387Z,42.37
2023-01-08T06:41:07.392Z,39.93
2023-01-08T06:43:36.242Z,43.77
2023-01-08T06:46:06.052Z,44.53
2023-01-08T06:48:33.553Z,44.70
2023-01-08T06:51:02.498Z,41.60
2023-01-08T06:53:30.259Z,39.23
2023-01-08T06:55:58.976Z,39.90
2023-01-08T06:58:28.254Z,47.97
2023-01-08T07:00:55.960Z,45.00
2023-01-08T07:03:23.520Z,39.23
2023-01-08T07:05:51.057Z,41.73
2023-01-08T07:08:19.362Z,38.97
2023-01-08T07:10:47.027Z,43.20
2023-01-08T07:13:15.355Z,44.93
2023-01-08T07:15:44.071Z,41.03
2023-01-08T07:18:13.201Z,37.57
2023-01-08T07:20:41.021Z,44.47
2023-01-08T07:23:12.158Z,43.77
2023-01-08T07:25:39.795Z,40.50
2023-01-08T07:28:11.865Z,39.67
2023-01-08T07:30:39.338Z,40.37
2023-01-08T07:33:06.818Z,42.13
2023-01-08T07:35:35.789Z,39.77
2023-01-08T07:38:03.256Z,42.40
2023-01-08T07:40:31.921Z,39.33
2023-01-08T07:43:01.784Z,40.80
2023-01-08T07:45:30.480Z,36.97
2023-01-08T07:47:59.141Z,39.33
2023-01-08T07:50:27.754Z,41.57
2023-01-08T07:53:02.139Z,41.23
2023-01-08T07:55:31.415Z,43.47
2023-01-08T07:57:59.466Z,41.60
2023-01-08T08:00:27.237Z,37.77
2023-01-08T08:02:54.866Z,39.20
2023-01-08T08:05:22.348Z,149.77
2023-01-08T08:07:49.786Z,65.20
2023-01-08T08:10:17.336Z,54.33
2023-01-08T08:12:47.825Z,64.33
2023-01-08T08:15:15.723Z,99.80
2023-01-08T08:17:49.418Z,112.60
2023-01-08T08:20:17.377Z,119.00
2023-01-08T08:22:44.869Z,97.57
2023-01-08T08:25:15.408Z,86.60
2023-01-08T08:27:44.392Z,74.17
2023-01-08T08:30:13.562Z,71.83
2023-01-08T08:32:41.034Z,72.27
2023-01-08T08:35:08.942Z,59.60
2023-01-08T08:37:36.398Z,64.80
2023-01-08T08:40:04.111Z,65.33
2023-01-08T08:42:31.577Z,195.00
2023-01-08T08:44:58.987Z,52.70
2023-01-08T08:47:26.522Z,45.40
2023-01-08T08:49:53.992Z,39.27
2023-01-08T08:52:21.450Z,33.10
2023-01-08T08:54:48.908Z,28.70
2023-01-08T08:57:16.312Z,29.83
2023-01-08T08:59:43.778Z,26.67
2023-01-08T09:02:12.619Z,30.00
2023-01-08T09:04:40.274Z,29.13
2023-01-08T09:07:07.807Z,30.10
2023-01-08T09:09:35.298Z,30.10
2023-01-08T09:12:02.772Z,28.63
2023-01-08T09:14:30.210Z,24.97
2023-01-08T09:16:57.679Z,23.80
2023-01-08T09:19:25.175Z,21.83
2023-01-08T09:21:52.634Z,26.53
2023-01-08T09:24:20.415Z,32.37
2023-01-08T09:26:47.798Z,31.80
2023-01-08T09:29:15.305Z,29.30
2023-01-08T09:31:42.795Z,25.23
2023-01-08T09:34:10.377Z,23.60
2023-01-08T09:36:37.750Z,21.57
2023-01-08T09:39:05.512Z,19.93
2023-01-08T09:41:36.691Z,20.27
2023-01-08T09:44:06.318Z,21.17
2023-01-08T09:46:34.990Z,20.43
2023-01-08T09:49:07.589Z,20.53
2023-01-08T09:51:37.365Z,19.20
2023-01-08T09:54:07.683Z,18.87
2023-01-08T09:56:37.026Z,19.23
2023-01-08T09:59:05.726Z,28.13
2023-01-08T10:01:38.951Z,37.10
2023-01-08T10:04:21.249Z,27.30
2023-01-08T10:07:00.793Z,22.23
2023-01-08T10:09:31.209Z,19.00
2023-01-08T10:12:05.085Z,20.47
2023-01-08T10:14:48.100Z,19.47
2023-01-08T10:17:41.022Z,22.47
2023-01-08T10:20:31.071Z,25.43
2023-01-08T10:23:14.916Z,22.73
2023-01-08T10:26:02.538Z,17.97
2023-01-08T10:28:38.194Z,18.63
2023-01-08T10:31:09.687Z,17.23
2023-01-08T10:33:44.408Z,16.43
2023-01-08T10:36:16.342Z,15.30
2023-01-08T10:39:01.135Z,19.70
2023-01-08T10:41:29.518Z,16.53
2023-01-08T10:56:41.520Z,17.73
2023-01-08T10:59:23.245Z,18.67
2023-01-08T11:01:53.695Z,17.83
2023-01-08T11:04:34.547Z,17.83
2023-01-08T11:07:05.379Z,20.63
2023-01-08T11:09:47.957Z,14.97
2023-01-08T11:12:36.924Z,15.10
2023-01-08T11:15:28.569Z,15.87
2023-01-08T11:18:10.451Z,15.23
2023-01-08T11:20:39.533Z,13.77
2023-01-08T11:23:24.268Z,13.53
2023-01-08T11:26:05.660Z,12.40
2023-01-08T11:29:16.012Z,9.70
2023-01-08T11:32:09.566Z,10.67
2023-01-08T11:34:57.464Z,10.33
2023-01-08T11:37:29.705Z,10.73
2023-01-08T11:39:57.683Z,11.87
2023-01-08T11:42:46.620Z,11.33
2023-01-08T11:45:31.961Z,9.07
2023-01-08T11:48:08.599Z,10.57
2023-01-08T11:51:12.403Z,10.53
2023-01-08T11:54:07.599Z,7.20
2023-01-08T11:56:46.838Z,8.80
2023-01-08T11:59:48.891Z,8.63
2023-01-08T12:02:41.757Z,8.63
2023-01-08T12:05:48.528Z,12.13
2023-01-08T12:08:52.578Z,13.97
2023-01-08T12:11:33.333Z,13.00
2023-01-08T12:14:32.921Z,12.40
2023-01-08T12:17:31.114Z,13.17
2023-01-08T12:20:17.021Z,10.53
2023-01-08T12:23:02.481Z,11.43
2023-01-08T12:25:52.725Z,10.87
2023-01-08T12:29:25.286Z,10.73
2023-01-08T12:32:18.106Z,10.30
2023-01-08T12:34:56.388Z,10.33
2023-01-08T12:37:44.726Z,9.80
2023-01-08T12:40:49.521Z,9.67
2023-01-08T12:43:33.786Z,9.47
2023-01-08T12:46:03.533Z,10.13
2023-01-08T12:48:36.664Z,9.43
2023-01-08T12:52:16.051Z,9.13
2023-01-08T12:55:00.014Z,8.77
2023-01-08T12:57:27.433Z,9.20
2023-01-08T13:00:23.233Z,9.60
2023-01-08T13:03:02.192Z,9.47
2023-01-08T13:05:36.467Z,10.80
2023-01-08T13:08:37.400Z,9.73
2023-01-08T13:11:05.552Z,11.27
2023-01-08T13:13:45.308Z,9.27
2023-01-08T13:16:14.466Z,9.53
2023-01-08T13:18:51.588Z,11.43
2023-01-08T13:21:29.049Z,8.53
2023-01-08T13:24:27.007Z,10.50
2023-01-08T13:26:54.834Z,8.83
2023-01-08T13:29:44.674Z,10.27
2023-01-08T13:32:45.851Z,10.10
2023-01-08T13:35:16.261Z,10.57
2023-01-08T13:37:45.008Z,10.23
2023-01-08T13:40:44.921Z,12.33
2023-01-08T13:43:29.035Z,10.87
2023-01-08T13:46:02.620Z,10.53
2023-01-08T13:48:35.904Z,11.10
2023-01-08T13:51:04.006Z,10.60
2023-01-08T13:53:32.685Z,9.20
2023-01-08T13:56:08.172Z,11.90
2023-01-08T13:58:53.878Z,10.37
2023-01-08T14:01:23.073Z,10.23
2023-01-08T14:03:51.417Z,10.27
2023-01-08T14:06:20.240Z,9.87
2023-01-08T14:09:04.937Z,11.07
2023-01-08T14:11:45.316Z,10.37
2023-01-08T14:14:22.587Z,10.83
2023-01-08T14:16:53.448Z,12.07
2023-01-08T14:19:24.911Z,9.80
2023-01-08T14:21:59.159Z,11.83
2023-01-08T14:24:27.992Z,11.13
2023-01-08T14:27:00.606Z,10.67
2023-01-08T14:29:31.002Z,11.83
2023-01-08T14:32:01.034Z,12.03
2023-01-08T14:34:31.795Z,11.97
2023-01-08T14:36:59.409Z,10.90
2023-01-08T14:39:35.817Z,12.73
2023-01-08T14:42:32.725Z,15.70
2023-01-08T14:45:08.514Z,14.80
2023-01-08T14:47:49.403Z,12.70
2023-01-08T14:50:40.667Z,13.50
2023-01-08T14:53:43.744Z,12.90
2023-01-08T14:56:37.557Z,12.33
2023-01-08T14:59:12.621Z,14.07
2023-01-08T15:01:40.477Z,14.03
2023-01-08T15:04:15.366Z,15.37
2023-01-08T15:06:42.971Z,15.40
2023-01-08T15:09:25.711Z,16.07
2023-01-08T15:12:08.092Z,16.27
2023-01-08T15:14:37.137Z,16.87
2023-01-08T15:17:18.352Z,16.03
2023-01-08T15:19:58.385Z,14.53
2023-01-08T15:22:31.507Z,15.50
2023-01-08T15:25:03.863Z,15.30
2023-01-08T15:27:31.909Z,15.10
2023-01-08T15:30:04.191Z,16.43
2023-01-08T15:32:37.342Z,15.83
2023-01-08T15:35:19.014Z,17.17
2023-01-08T15:37:46.595Z,18.77
2023-01-08T15:40:14.323Z,18.67
2023-01-08T15:43:00.378Z,16.53
2023-01-08T15:45:32.557Z,20.23
2023-01-08T15:48:00.357Z,18.83
2023-01-08T15:50:29.054Z,19.50
2023-01-08T15:52:57.635Z,19.47
2023-01-08T15:55:25.794Z,19.73
2023-01-08T15:57:55.448Z,20.70
2023-01-08T16:00:23.176Z,20.73
2023-01-08T16:02:53.042Z,19.07
2023-01-08T16:05:23.438Z,21.17
2023-01-08T16:07:51.038Z,19.07
2023-01-08T16:10:19.557Z,17.67
2023-01-08T16:12:47.470Z,17.17
2023-01-08T16:15:16.353Z,18.43
2023-01-08T16:17:44.394Z,20.13
2023-01-08T16:20:13.713Z,20.53
2023-01-08T16:22:41.785Z,20.60
2023-01-08T16:25:10.119Z,21.90
2023-01-08T16:27:38.595Z,24.47
2023-01-08T16:30:09.205Z,25.70
2023-01-08T16:32:36.636Z,27.33
2023-01-08T16:35:04.563Z,28.17
2023-01-08T16:37:32.115Z,43.07
2023-01-08T16:39:59.551Z,42.50
2023-01-08T16:42:27.107Z,33.93
2023-01-08T16:44:54.893Z,29.50
2023-01-08T16:47:22.366Z,30.00
2023-01-08T16:49:50.571Z,30.50
2023-01-08T16:52:18.923Z,30.67
2023-01-08T16:54:47.767Z,23.83
2023-01-08T16:57:15.385Z,24.47
2023-01-08T16:59:42.813Z,21.77
2023-01-08T17:02:10.963Z,21.50
2023-01-08T17:04:38.624Z,20.73
2023-01-08T17:07:06.741Z,21.70
2023-01-08T17:09:34.354Z,20.37
2023-01-08T17:12:02.154Z,18.27
2023-01-08T17:14:29.680Z,22.23
2023-01-08T17:16:57.173Z,19.53
2023-01-08T17:19:24.668Z,23.97
2023-01-08T17:21:52.134Z,25.90
2023-01-08T17:24:19.868Z,25.57
2023-01-08T17:26:47.267Z,32.87
2023-01-08T17:29:14.736Z,26.77
2023-01-08T17:31:42.246Z,24.47
2023-01-08T17:34:13.749Z,19.60
2023-01-08T17:36:41.542Z,19.73
2023-01-08T17:39:11.142Z,24.73
2023-01-08T17:41:58.331Z,24.23
2023-01-08T17:44:26.653Z,19.00
2023-01-08T17:46:54.077Z,22.50
2023-01-08T17:49:21.557Z,33.77
2023-01-08T17:51:49.136Z,28.93
2023-01-08T17:54:17.369Z,27.23
2023-01-08T17:56:44.972Z,22.63
2023-01-08T17:59:14.782Z,23.90
2023-01-08T18:01:42.392Z,26.40
2023-01-08T18:04:10.511Z,28.37
2023-01-08T18:06:38.067Z,26.40
2023-01-08T18:09:05.830Z,22.57
2023-01-08T18:11:33.993Z,23.73
2023-01-08T18:14:03.054Z,22.67
2023-01-08T18:16:32.528Z,22.03
2023-01-08T18:19:01.255Z,27.60
2023-01-08T18:21:29.737Z,25.60
2023-01-08T18:23:57.534Z,21.90
2023-01-08T18:26:25.062Z,23.27
2023-01-08T18:28:53.250Z,27.13
2023-01-08T18:31:21.344Z,28.57
2023-01-08T18:33:52.658Z,24.63
2023-01-08T18:36:21.275Z,27.10
2023-01-08T18:38:49.979Z,24.93
2023-01-08T18:41:38.534Z,27.70
2023-01-08T18:44:07.954Z,25.67
2023-01-08T18:46:35.988Z,24.70
2023-01-08T18:49:03.781Z,28.60
2023-01-08T18:51:31.545Z,26.63
2023-01-08T18:53:59.206Z,23.73
2023-01-08T18:56:34.095Z,22.10
2023-01-08T18:59:03.867Z,27.30
2023-01-08T19:01:31.535Z,25.27
2023-01-08T19:03:59.023Z,25.90
2023-01-08T19:06:26.530Z,23.80
2023-01-08T19:08:56.239Z,29.17
2023-01-08T19:11:25.759Z,25.80
2023-01-08T19:13:57.885Z,23.90
2023-01-08T19:16:25.899Z,24.17
2023-01-08T19:18:53.980Z,27.37
2023-01-08T19:21:21.832Z,31.53
2023-01-08T19:23:49.511Z,30.67
2023-01-08T19:26:17.296Z,34.57
2023-01-08T19:28:44.865Z,31.70
2023-01-08T19:31:16.105Z,29.47
2023-01-08T19:33:44.794Z,29.53
2023-01-08T19:36:16.717Z,28.67
2023-01-08T19:38:45.248Z,26.67
2023-01-08T19:41:31.823Z,26.87
2023-01-08T19:43:59.895Z,26.60
2023-01-08T19:46:28.268Z,25.20
2023-01-08T19:49:00.712Z,24.03
2023-01-08T19:51:30.155Z,25.37
2023-01-08T19:53:59.453Z,24.00
2023-01-08T19:56:27.256Z,23.80
2023-01-08T19:58:57.085Z,32.00
2023-01-08T20:01:27.280Z,33.40
2023-01-08T20:03:56.624Z,48.00
2023-01-08T20:06:27.176Z,95.63
2023-01-08T20:08:59.165Z,170.97
2023-01-08T20:11:28.260Z,81.13
2023-01-08T20:13:56.942Z,61.97
2023-01-08T20:16:24.729Z,76.83
2023-01-08T20:18:58.099Z,69.10
2023-01-08T20:21:25.638Z,81.37
2023-01-08T20:23:59.968Z,61.57
2023-01-08T20:26:30.260Z,46.10
2023-01-08T20:28:58.893Z,46.10
2023-01-08T20:31:30.837Z,44.70
2023-01-08T20:34:02.394Z,47.93
2023-01-08T20:36:33.137Z,110.03
2023-01-08T20:39:05.962Z,96.43
2023-01-08T20:41:33.549Z,85.23
2023-01-08T20:44:06.975Z,105.47
2023-01-08T20:46:35.984Z,66.33
2023-01-08T20:49:08.477Z,39.63
2023-01-08T20:51:40.897Z,42.23
2023-01-08T20:54:14.887Z,42.27
2023-01-08T20:56:43.864Z,42.90
2023-01-08T20:59:12.008Z,37.67
2023-01-08T21:01:39.565Z,39.40
2023-01-08T21:04:10.306Z,43.40
2023-01-08T21:06:38.335Z,47.20
2023-01-08T21:09:09.966Z,41.17
2023-01-08T21:11:40.640Z,36.37
2023-01-08T21:14:09.578Z,36.03
2023-01-08T21:16:39.757Z,40.70
2023-01-08T21:19:10.553Z,36.90
2023-01-08T21:21:40.937Z,37.87
2023-01-08T21:24:12.336Z,37.87
2023-01-08T21:26:39.956Z,35.10
2023-01-08T21:29:09.198Z,39.57
2023-01-08T21:31:38.909Z,50.37
2023-01-08T21:34:09.009Z,62.80
2023-01-08T21:36:37.302Z,60.23
2023-01-08T21:39:05.147Z,48.70
2023-01-08T21:41:51.305Z,54.23
2023-01-08T21:44:43.244Z,50.07
2023-01-08T21:47:16.694Z,53.43
2023-01-08T21:49:46.133Z,56.70
2023-01-08T21:52:32.623Z,65.47
2023-01-08T21:55:00.398Z,82.70
2023-01-08T21:57:28.762Z,82.33
2023-01-08T21:59:56.883Z,71.97
2023-01-08T22:02:25.143Z,62.20
2023-01-08T22:04:55.856Z,64.63
2023-01-08T22:07:24.608Z,53.43
2023-01-08T22:09:52.536Z,63.80
2023-01-08T22:12:20.654Z,85.67
2023-01-08T22:14:48.355Z,80.83
2023-01-08T22:17:15.815Z,87.97
2023-01-08T22:19:43.236Z,49.67
2023-01-08T22:22:11.315Z,40.27
2023-01-08T22:24:39.960Z,38.47
2023-01-08T22:27:08.811Z,36.00
2023-01-08T22:29:37.831Z,40.53
2023-01-08T22:32:05.622Z,35.40
2023-01-08T22:34:35.193Z,50.90
2023-01-08T22:37:02.814Z,44.07
2023-01-08T22:39:30.567Z,40.70
2023-01-08T22:41:58.138Z,48.23
2023-01-08T22:44:25.595Z,48.33
2023-01-08T22:46:53.039Z,38.53
2023-01-08T22:49:20.475Z,47.17
2023-01-08T22:51:47.925Z,44.67
2023-01-08T22:54:17.463Z,42.07
2023-01-08T22:56:44.918Z,48.03
2023-01-08T22:59:12.381Z,47.03
2023-01-08T23:01:39.847Z,44.47
2023-01-08T23:04:07.447Z,48.60
2023-01-08T23:06:35.923Z,56.77
2023-01-08T23:09:03.801Z,48.03
2023-01-08T23:11:33.143Z,54.33
2023-01-08T23:14:01.185Z,73.10
2023-01-08T23:16:28.829Z,68.93
2023-01-08T23:18:57.202Z,85.63
2023-01-08T23:21:26.557Z,69.30
2023-01-08T23:23:54.395Z,82.23
2023-01-08T23:26:28.701Z,62.83
2023-01-08T23:28:58.069Z,48.83
2023-01-08T23:31:29.346Z,50.80
2023-01-08T23:33:58.099Z,39.30
2023-01-08T23:36:26.199Z,39.87
2023-01-08T23:38:56.191Z,34.37
2023-01-08T23:41:34.439Z,44.07
2023-01-08T23:44:06.473Z,41.33
2023-01-08T23:46:35.385Z,38.00
2023-01-08T23:49:02.908Z,34.90
2023-01-08T23:51:30.562Z,37.80
2023-01-08T23:53:58.038Z,37.73
2023-01-08T23:56:26.174Z,46.43
2023-01-08T23:58:54.196Z,43.77
